sensor_id;sensor_type;location;lat;lon;timestamp;pressure;altitude;pressure_sealevel;temperature;humidity
10940;BME280;5522;42.696;23.494;2022-12-13T00:00:57;53819.63;;;-139.68;100.00
10940;BME280;5522;42.696;23.494;2022-12-13T00:03:25;53801.53;;;-139.68;100.00
10940;BME280;5522;42.696;23.494;2022-12-13T00:05:52;53815.63;;;-139.68;100.00
10940;BME280;5522;42.696;23.494;2022-12-13T00:08:19;53817.63;;;-139.68;100.00
10940;BME280;5522;42.696;23.494;2022-12-13T00:10:46;53837.72;;;-139.68;100.00
10940;BME280;5522;42.696;23.494;2022-12-13T00:13:13;53833.72;;;-139.68;100.00
10940;BME280;5522;42.696;23.494;2022-12-13T00:15:40;53783.44;;;-139.68;100.00
10940;BME280;5522;42.696;23.494;2022-12-13T00:18:07;53799.53;;;-139.68;100.00
10940;BME280;5522;42.696;23.494;2022-12-13T00:20:38;53823.66;;;-139.68;100.00
10940;BME280;5522;42.696;23.494;2022-12-13T00:23:05;53839.75;;;-139.68;100.00
10940;BME280;5522;42.696;23.494;2022-12-13T00:25:32;53815.63;;;-139.68;100.00
10940;BME280;5522;42.696;23.494;2022-12-13T00:27:59;53835.72;;;-139.68;100.00
10940;BME280;5522;42.696;23.494;2022-12-13T00:30:26;53785.47;;;-139.68;100.00
10940;BME280;5522;42.696;23.494;2022-12-13T00:32:55;53827.69;;;-139.68;100.00
10940;BME280;5522;42.696;23.494;2022-12-13T00:35:22;53807.56;;;-139.68;100.00
10940;BME280;5522;42.696;23.494;2022-12-13T00:37:51;53805.56;;;-139.68;100.00
10940;BME280;5522;42.696;23.494;2022-12-13T00:40:18;53791.50;;;-139.68;100.00
10940;BME280;5522;42.696;23.494;2022-12-13T00:42:45;53799.53;;;-139.68;100.00
10940;BME280;5522;42.696;23.494;2022-12-13T00:45:12;53831.69;;;-139.68;100.00
10940;BME280;5522;42.696;23.494;2022-12-13T00:47:39;53827.69;;;-139.68;100.00
10940;BME280;5522;42.696;23.494;2022-12-13T00:50:06;53835.72;;;-139.68;100.00
10940;BME280;5522;42.696;23.494;2022-12-13T00:52:33;53833.72;;;-139.68;100.00
10940;BME280;5522;42.696;23.494;2022-12-13T00:55:02;53803.56;;;-139.68;100.00
10940;BME280;5522;42.696;23.494;2022-12-13T00:57:29;53823.66;;;-139.68;100.00
10940;BME280;5522;42.696;23.494;2022-12-13T01:07:36;53819.63;;;-139.68;100.00
10940;BME280;5522;42.696;23.494;2022-12-13T01:10:07;53819.63;;;-139.68;100.00
10940;BME280;5522;42.696;23.494;2022-12-13T01:12:34;53823.66;;;-139.68;100.00
10940;BME280;5522;42.696;23.494;2022-12-13T01:15:00;53811.59;;;-139.68;100.00
10940;BME280;5522;42.696;23.494;2022-12-13T01:17:27;53835.72;;;-139.68;100.00
10940;BME280;5522;42.696;23.494;2022-12-13T01:19:55;53839.75;;;-139.68;100.00
10940;BME280;5522;42.696;23.494;2022-12-13T01:22:22;53815.63;;;-139.68;100.00
10940;BME280;5522;42.696;23.494;2022-12-13T01:24:49;53823.66;;;-139.68;100.00
10940;BME280;5522;42.696;23.494;2022-12-13T01:27:17;53831.69;;;-139.68;100.00
10940;BME280;5522;42.696;23.494;2022-12-13T01:29:44;53811.59;;;-139.68;100.00
10940;BME280;5522;42.696;23.494;2022-12-13T01:32:11;53793.50;;;-139.68;100.00
10940;BME280;5522;42.696;23.494;2022-12-13T01:34:37;53845.78;;;-139.68;100.00
10940;BME280;5522;42.696;23.494;2022-12-13T01:37:04;53815.63;;;-139.68;100.00
10940;BME280;5522;42.696;23.494;2022-12-13T01:39:31;53847.78;;;-139.68;100.00
10940;BME280;5522;42.696;23.494;2022-12-13T01:41:58;53821.66;;;-139.68;100.00
10940;BME280;5522;42.696;23.494;2022-12-13T01:44:58;53801.53;;;-139.68;100.00
10940;BME280;5522;42.696;23.494;2022-12-13T01:47:28;53801.53;;;-139.68;100.00
10940;BME280;5522;42.696;23.494;2022-12-13T01:50:00;53773.41;;;-139.68;100.00
10940;BME280;5522;42.696;23.494;2022-12-13T01:52:29;53813.59;;;-139.68;100.00
10940;BME280;5522;42.696;23.494;2022-12-13T01:54:58;53829.69;;;-139.68;100.00
10940;BME280;5522;42.696;23.494;2022-12-13T01:57:27;53803.56;;;-139.68;100.00
10940;BME280;5522;42.696;23.494;2022-12-13T01:59:54;53807.56;;;-139.68;100.00
10940;BME280;5522;42.696;23.494;2022-12-13T02:02:22;53807.56;;;-139.68;100.00
10940;BME280;5522;42.696;23.494;2022-12-13T02:04:55;53837.72;;;-139.68;100.00
10940;BME280;5522;42.696;23.494;2022-12-13T02:07:26;53839.75;;;-139.68;100.00
10940;BME280;5522;42.696;23.494;2022-12-13T02:09:56;53815.63;;;-139.68;100.00
10940;BME280;5522;42.696;23.494;2022-12-13T02:12:26;53811.59;;;-139.68;100.00
10940;BME280;5522;42.696;23.494;2022-12-13T02:14:53;53817.63;;;-139.68;100.00
10940;BME280;5522;42.696;23.494;2022-12-13T02:17:27;53845.78;;;-139.68;100.00
10940;BME280;5522;42.696;23.494;2022-12-13T02:20:22;53843.75;;;-139.68;100.00
10940;BME280;5522;42.696;23.494;2022-12-13T02:23:12;53815.63;;;-139.68;100.00
10940;BME280;5522;42.696;23.494;2022-12-13T02:26:05;53841.75;;;-139.68;100.00
10940;BME280;5522;42.696;23.494;2022-12-13T02:28:46;53807.56;;;-139.68;100.00
10940;BME280;5522;42.696;23.494;2022-12-13T02:31:25;53813.59;;;-139.68;100.00
10940;BME280;5522;42.696;23.494;2022-12-13T02:34:00;53819.63;;;-139.68;100.00
10940;BME280;5522;42.696;23.494;2022-12-13T02:36:31;53795.50;;;-139.68;100.00
10940;BME280;5522;42.696;23.494;2022-12-13T02:39:02;53825.66;;;-139.68;100.00
10940;BME280;5522;42.696;23.494;2022-12-13T02:41:37;53801.53;;;-139.68;100.00
10940;BME280;5522;42.696;23.494;2022-12-13T02:44:07;53819.63;;;-139.68;100.00
10940;BME280;5522;42.696;23.494;2022-12-13T02:46:40;53821.66;;;-139.68;100.00
10940;BME280;5522;42.696;23.494;2022-12-13T02:49:09;53803.56;;;-139.68;100.00
10940;BME280;5522;42.696;23.494;2022-12-13T02:51:38;53839.75;;;-139.68;100.00
10940;BME280;5522;42.696;23.494;2022-12-13T02:54:05;53815.63;;;-139.68;100.00
10940;BME280;5522;42.696;23.494;2022-12-13T02:56:32;53827.69;;;-139.68;100.00
10940;BME280;5522;42.696;23.494;2022-12-13T02:59:01;53787.47;;;-139.68;100.00
10940;BME280;5522;42.696;23.494;2022-12-13T03:01:41;53771.38;;;-139.68;100.00
10940;BME280;5522;42.696;23.494;2022-12-13T03:04:20;53811.59;;;-139.68;100.00
10940;BME280;5522;42.696;23.494;2022-12-13T03:06:59;53791.50;;;-139.68;100.00
10940;BME280;5522;42.696;23.494;2022-12-13T03:09:36;53793.50;;;-139.68;100.00
10940;BME280;5522;42.696;23.494;2022-12-13T03:12:14;53815.63;;;-139.68;100.00
10940;BME280;5522;42.696;23.494;2022-12-13T03:15:09;53789.47;;;-139.68;100.00
10940;BME280;5522;42.696;23.494;2022-12-13T03:17:44;53811.59;;;-139.68;100.00
10940;BME280;5522;42.696;23.494;2022-12-13T03:20:15;53751.28;;;-139.68;100.00
10940;BME280;5522;42.696;23.494;2022-12-13T03:22:43;53805.56;;;-139.68;100.00
10940;BME280;5522;42.696;23.494;2022-12-13T03:25:10;53791.50;;;-139.68;100.00
10940;BME280;5522;42.696;23.494;2022-12-13T03:27:37;53795.50;;;-139.68;100.00
10940;BME280;5522;42.696;23.494;2022-12-13T03:30:04;53793.50;;;-139.68;100.00
10940;BME280;5522;42.696;23.494;2022-12-13T03:32:31;53827.69;;;-139.68;100.00
10940;BME280;5522;42.696;23.494;2022-12-13T03:35:00;53813.59;;;-139.68;100.00
10940;BME280;5522;42.696;23.494;2022-12-13T03:37:27;53827.69;;;-139.68;100.00
10940;BME280;5522;42.696;23.494;2022-12-13T03:39:54;53811.59;;;-139.68;100.00
10940;BME280;5522;42.696;23.494;2022-12-13T03:42:21;53795.50;;;-139.68;100.00
10940;BME280;5522;42.696;23.494;2022-12-13T03:44:48;53781.44;;;-139.68;100.00
10940;BME280;5522;42.696;23.494;2022-12-13T03:47:15;53811.59;;;-139.68;100.00
10940;BME280;5522;42.696;23.494;2022-12-13T03:49:42;53823.66;;;-139.68;100.00
10940;BME280;5522;42.696;23.494;2022-12-13T03:52:11;53813.59;;;-139.68;100.00
10940;BME280;5522;42.696;23.494;2022-12-13T03:54:37;53803.56;;;-139.68;100.00
10940;BME280;5522;42.696;23.494;2022-12-13T03:57:04;53795.50;;;-139.68;100.00
10940;BME280;5522;42.696;23.494;2022-12-13T03:59:31;53787.47;;;-139.68;100.00
10940;BME280;5522;42.696;23.494;2022-12-13T04:01:58;53779.44;;;-139.68;100.00
10940;BME280;5522;42.696;23.494;2022-12-13T04:04:25;53793.50;;;-139.68;100.00
10940;BME280;5522;42.696;23.494;2022-12-13T04:06:52;53783.44;;;-139.68;100.00
10940;BME280;5522;42.696;23.494;2022-12-13T04:09:20;53789.47;;;-139.68;100.00
10940;BME280;5522;42.696;23.494;2022-12-13T04:11:47;53793.50;;;-139.68;100.00
10940;BME280;5522;42.696;23.494;2022-12-13T04:14:31;53781.44;;;-139.68;100.00
10940;BME280;5522;42.696;23.494;2022-12-13T04:16:58;53805.56;;;-139.68;100.00
10940;BME280;5522;42.696;23.494;2022-12-13T04:19:25;53767.38;;;-139.68;100.00
10940;BME280;5522;42.696;23.494;2022-12-13T04:21:52;53771.38;;;-139.68;100.00
10940;BME280;5522;42.696;23.494;2022-12-13T04:24:21;53795.50;;;-139.68;100.00
10940;BME280;5522;42.696;23.494;2022-12-13T04:26:47;53795.50;;;-139.68;100.00
10940;BME280;5522;42.696;23.494;2022-12-13T04:29:14;53811.59;;;-139.68;100.00
10940;BME280;5522;42.696;23.494;2022-12-13T04:31:41;53835.72;;;-139.68;100.00
10940;BME280;5522;42.696;23.494;2022-12-13T04:34:08;53785.47;;;-139.68;100.00
10940;BME280;5522;42.696;23.494;2022-12-13T04:36:35;53753.28;;;-139.68;100.00
10940;BME280;5522;42.696;23.494;2022-12-13T04:39:03;53819.63;;;-139.68;100.00
10940;BME280;5522;42.696;23.494;2022-12-13T04:41:36;53775.41;;;-139.68;100.00
10940;BME280;5522;42.696;23.494;2022-12-13T04:44:04;53803.56;;;-139.68;100.00
10940;BME280;5522;42.696;23.494;2022-12-13T04:46:32;53807.56;;;-139.68;100.00
10940;BME280;5522;42.696;23.494;2022-12-13T04:48:59;53767.38;;;-139.68;100.00
10940;BME280;5522;42.696;23.494;2022-12-13T04:51:26;53755.31;;;-139.68;100.00
10940;BME280;5522;42.696;23.494;2022-12-13T04:53:53;53805.56;;;-139.68;100.00
10940;BME280;5522;42.696;23.494;2022-12-13T04:56:20;53795.50;;;-139.68;100.00
10940;BME280;5522;42.696;23.494;2022-12-13T04:58:48;53775.41;;;-139.68;100.00
10940;BME280;5522;42.696;23.494;2022-12-13T05:01:15;53763.34;;;-139.68;100.00
10940;BME280;5522;42.696;23.494;2022-12-13T05:03:42;53799.53;;;-139.68;100.00
10940;BME280;5522;42.696;23.494;2022-12-13T05:06:11;53763.34;;;-139.68;100.00
10940;BME280;5522;42.696;23.494;2022-12-13T05:08:39;53789.47;;;-139.68;100.00
10940;BME280;5522;42.696;23.494;2022-12-13T05:11:07;53789.47;;;-139.68;100.00
10940;BME280;5522;42.696;23.494;2022-12-13T05:13:35;53775.41;;;-139.68;100.00
10940;BME280;5522;42.696;23.494;2022-12-13T05:16:06;53779.44;;;-139.68;100.00
10940;BME280;5522;42.696;23.494;2022-12-13T05:18:33;53793.50;;;-139.68;100.00
10940;BME280;5522;42.696;23.494;2022-12-13T05:21:01;53817.63;;;-139.68;100.00
10940;BME280;5522;42.696;23.494;2022-12-13T05:23:28;53785.47;;;-139.68;100.00
10940;BME280;5522;42.696;23.494;2022-12-13T05:25:55;53779.44;;;-139.68;100.00
10940;BME280;5522;42.696;23.494;2022-12-13T05:28:22;53815.63;;;-139.68;100.00
10940;BME280;5522;42.696;23.494;2022-12-13T05:30:51;53803.56;;;-139.68;100.00
10940;BME280;5522;42.696;23.494;2022-12-13T05:33:20;53777.41;;;-139.68;100.00
10940;BME280;5522;42.696;23.494;2022-12-13T05:35:47;53763.34;;;-139.68;100.00
10940;BME280;5522;42.696;23.494;2022-12-13T05:38:14;53783.44;;;-139.68;100.00
10940;BME280;5522;42.696;23.494;2022-12-13T05:40:41;53799.53;;;-139.68;100.00
10940;BME280;5522;42.696;23.494;2022-12-13T05:43:09;53787.47;;;-139.68;100.00
10940;BME280;5522;42.696;23.494;2022-12-13T05:45:36;53785.47;;;-139.68;100.00
10940;BME280;5522;42.696;23.494;2022-12-13T05:48:03;53795.50;;;-139.68;100.00
10940;BME280;5522;42.696;23.494;2022-12-13T05:50:31;53775.41;;;-139.68;100.00
10940;BME280;5522;42.696;23.494;2022-12-13T05:52:58;53777.41;;;-139.68;100.00
10940;BME280;5522;42.696;23.494;2022-12-13T05:55:25;53779.44;;;-139.68;100.00
10940;BME280;5522;42.696;23.494;2022-12-13T05:57:52;53763.34;;;-139.68;100.00
10940;BME280;5522;42.696;23.494;2022-12-13T06:00:19;53795.50;;;-139.68;100.00
10940;BME280;5522;42.696;23.494;2022-12-13T06:02:46;53815.63;;;-139.68;100.00
10940;BME280;5522;42.696;23.494;2022-12-13T06:05:13;53785.47;;;-139.68;100.00
10940;BME280;5522;42.696;23.494;2022-12-13T06:07:41;53757.31;;;-139.68;100.00
10940;BME280;5522;42.696;23.494;2022-12-13T06:10:09;53743.25;;;-139.68;100.00
10940;BME280;5522;42.696;23.494;2022-12-13T06:12:36;53775.41;;;-139.68;100.00
10940;BME280;5522;42.696;23.494;2022-12-13T06:15:04;53755.31;;;-139.68;100.00
10940;BME280;5522;42.696;23.494;2022-12-13T06:17:31;53787.47;;;-139.68;100.00
10940;BME280;5522;42.696;23.494;2022-12-13T06:19:58;53781.44;;;-139.68;100.00
10940;BME280;5522;42.696;23.494;2022-12-13T06:22:26;53769.38;;;-139.68;100.00
10940;BME280;5522;42.696;23.494;2022-12-13T06:24:54;53799.53;;;-139.68;100.00
10940;BME280;5522;42.696;23.494;2022-12-13T06:27:22;53785.47;;;-139.68;100.00
10940;BME280;5522;42.696;23.494;2022-12-13T06:29:49;53785.47;;;-139.68;100.00
10940;BME280;5522;42.696;23.494;2022-12-13T06:32:16;53803.56;;;-139.68;100.00
10940;BME280;5522;42.696;23.494;2022-12-13T06:34:43;53783.44;;;-139.68;100.00
10940;BME280;5522;42.696;23.494;2022-12-13T06:37:12;53805.56;;;-139.68;100.00
10940;BME280;5522;42.696;23.494;2022-12-13T06:39:39;53767.38;;;-139.68;100.00
10940;BME280;5522;42.696;23.494;2022-12-13T06:42:13;53791.50;;;-139.68;100.00
10940;BME280;5522;42.696;23.494;2022-12-13T06:44:40;53783.44;;;-139.68;100.00
10940;BME280;5522;42.696;23.494;2022-12-13T06:47:07;53777.41;;;-139.68;100.00
10940;BME280;5522;42.696;23.494;2022-12-13T06:49:34;53767.38;;;-139.68;100.00
10940;BME280;5522;42.696;23.494;2022-12-13T06:52:01;53735.19;;;-139.68;100.00
10940;BME280;5522;42.696;23.494;2022-12-13T06:54:28;53779.44;;;-139.68;100.00
10940;BME280;5522;42.696;23.494;2022-12-13T06:56:55;53763.34;;;-139.68;100.00
10940;BME280;5522;42.696;23.494;2022-12-13T06:59:23;53771.38;;;-139.68;100.00
10940;BME280;5522;42.696;23.494;2022-12-13T07:01:50;53823.66;;;-139.68;100.00
10940;BME280;5522;42.696;23.494;2022-12-13T07:04:17;53743.25;;;-139.68;100.00
10940;BME280;5522;42.696;23.494;2022-12-13T07:06:44;53795.50;;;-139.68;100.00
10940;BME280;5522;42.696;23.494;2022-12-13T07:09:11;53757.31;;;-139.68;100.00
10940;BME280;5522;42.696;23.494;2022-12-13T07:11:37;53779.44;;;-139.68;100.00
10940;BME280;5522;42.696;23.494;2022-12-13T07:14:04;53763.34;;;-139.68;100.00
10940;BME280;5522;42.696;23.494;2022-12-13T07:16:33;53817.63;;;-139.68;100.00
10940;BME280;5522;42.696;23.494;2022-12-13T07:19:01;53831.69;;;-139.68;100.00
10940;BME280;5522;42.696;23.494;2022-12-13T07:21:29;53791.50;;;-139.68;100.00
10940;BME280;5522;42.696;23.494;2022-12-13T07:23:56;53831.69;;;-139.68;100.00
10940;BME280;5522;42.696;23.494;2022-12-13T07:26:23;53833.72;;;-139.68;98.38
10940;BME280;5522;42.696;23.494;2022-12-13T07:28:50;53787.47;;;-139.68;97.33
10940;BME280;5522;42.696;23.494;2022-12-13T07:31:17;53823.66;;;-139.68;95.83
10940;BME280;5522;42.696;23.494;2022-12-13T07:33:45;53839.75;;;-139.68;96.07
10940;BME280;5522;42.696;23.494;2022-12-13T07:36:14;53883.97;;;-139.68;93.94
10940;BME280;5522;42.696;23.494;2022-12-13T07:38:42;53807.56;;;-139.68;92.75
10940;BME280;5522;42.696;23.494;2022-12-13T07:41:09;53811.59;;;-139.68;90.57
10940;BME280;5522;42.696;23.494;2022-12-13T07:43:36;53845.78;;;-139.68;90.40
10940;BME280;5522;42.696;23.494;2022-12-13T07:46:05;53883.97;;;-139.68;91.11
10940;BME280;5522;42.696;23.494;2022-12-13T07:48:32;53837.72;;;-139.68;93.36
10940;BME280;5522;42.696;23.494;2022-12-13T07:51:03;53815.63;;;-139.68;93.02
10940;BME280;5522;42.696;23.494;2022-12-13T07:53:31;53833.72;;;-139.68;89.88
10940;BME280;5522;42.696;23.494;2022-12-13T07:56:00;53843.75;;;-139.68;91.75
10940;BME280;5522;42.696;23.494;2022-12-13T07:58:27;53837.72;;;-139.68;88.19
10940;BME280;5522;42.696;23.494;2022-12-13T08:00:58;53877.94;;;-139.68;88.40
10940;BME280;5522;42.696;23.494;2022-12-13T08:03:25;53841.75;;;-139.68;83.91
10940;BME280;5522;42.696;23.494;2022-12-13T08:06:04;53845.78;;;-139.68;82.43
10940;BME280;5522;42.696;23.494;2022-12-13T08:08:32;53863.88;;;-139.68;69.98
10940;BME280;5522;42.696;23.494;2022-12-13T08:11:00;53815.63;;;-139.68;60.07
10940;BME280;5522;42.696;23.494;2022-12-13T08:13:28;53815.63;;;-139.68;59.26
10940;BME280;5522;42.696;23.494;2022-12-13T08:15:58;53813.59;;;-139.68;58.66
10940;BME280;5522;42.696;23.494;2022-12-13T08:18:26;53867.88;;;-139.68;60.28
10940;BME280;5522;42.696;23.494;2022-12-13T08:20:57;53831.69;;;-139.68;69.93
10940;BME280;5522;42.696;23.494;2022-12-13T08:23:25;53839.75;;;-139.68;73.65
10940;BME280;5522;42.696;23.494;2022-12-13T08:25:52;53793.50;;;-139.68;75.23
10940;BME280;5522;42.696;23.494;2022-12-13T08:28:19;53811.59;;;-139.68;70.78
10940;BME280;5522;42.696;23.494;2022-12-13T08:30:46;53827.69;;;-139.68;67.87
10940;BME280;5522;42.696;23.494;2022-12-13T08:33:14;53857.84;;;-139.68;62.02
10940;BME280;5522;42.696;23.494;2022-12-13T08:35:41;53827.69;;;-139.68;60.39
10940;BME280;5522;42.696;23.494;2022-12-13T08:38:08;53795.50;;;-139.68;56.32
10940;BME280;5522;42.696;23.494;2022-12-13T08:40:36;53847.78;;;-139.68;53.52
10940;BME280;5522;42.696;23.494;2022-12-13T08:43:04;53855.81;;;-139.68;51.64
10940;BME280;5522;42.696;23.494;2022-12-13T08:45:31;53875.94;;;-139.68;46.56
10940;BME280;5522;42.696;23.494;2022-12-13T08:47:59;53912.13;;;-139.68;42.00
10940;BME280;5522;42.696;23.494;2022-12-13T08:50:27;53875.94;;;-139.68;39.46
10940;BME280;5522;42.696;23.494;2022-12-13T08:52:54;53896.03;;;-139.68;37.73
10940;BME280;5522;42.696;23.494;2022-12-13T08:55:22;53883.97;;;-139.68;36.38
10940;BME280;5522;42.696;23.494;2022-12-13T08:57:50;53885.97;;;-139.68;35.95
10940;BME280;5522;42.696;23.494;2022-12-13T09:00:20;53871.91;;;-139.68;34.25
10940;BME280;5522;42.696;23.494;2022-12-13T09:02:47;53920.16;;;-139.68;32.94
10940;BME280;5522;42.696;23.494;2022-12-13T09:05:13;53879.94;;;-139.68;32.79
10940;BME280;5522;42.696;23.494;2022-12-13T09:07:40;53936.22;;;-139.68;31.45
10940;BME280;5522;42.696;23.494;2022-12-13T09:10:10;53928.19;;;-139.68;32.30
10940;BME280;5522;42.696;23.494;2022-12-13T09:12:40;53976.44;;;-139.68;32.85
10940;BME280;5522;42.696;23.494;2022-12-13T09:15:09;53922.16;;;-139.68;33.64
10940;BME280;5522;42.696;23.494;2022-12-13T09:17:36;53950.31;;;-139.68;33.18
10940;BME280;5522;42.696;23.494;2022-12-13T09:20:08;53924.16;;;-139.68;31.24
10940;BME280;5522;42.696;23.494;2022-12-13T09:22:36;53954.31;;;-139.68;30.35
10940;BME280;5522;42.696;23.494;2022-12-13T09:25:03;53932.22;;;-139.68;29.89
10940;BME280;5522;42.696;23.494;2022-12-13T09:27:31;53912.13;;;-139.68;30.77
10940;BME280;5522;42.696;23.494;2022-12-13T09:29:58;53922.16;;;-139.68;31.96
10940;BME280;5522;42.696;23.494;2022-12-13T09:32:26;53916.13;;;-139.68;31.66
10940;BME280;5522;42.696;23.494;2022-12-13T09:34:53;53922.16;;;-139.68;32.27
10940;BME280;5522;42.696;23.494;2022-12-13T09:37:20;53898.03;;;-139.68;32.68
10940;BME280;5522;42.696;23.494;2022-12-13T09:39:47;53916.13;;;-139.68;33.11
10940;BME280;5522;42.696;23.494;2022-12-13T09:42:18;53920.16;;;-139.68;34.15
10940;BME280;5522;42.696;23.494;2022-12-13T09:44:51;53926.19;;;-139.68;36.04
10940;BME280;5522;42.696;23.494;2022-12-13T09:47:26;53851.81;;;-139.68;36.70
10940;BME280;5522;42.696;23.494;2022-12-13T09:49:54;53890.00;;;-139.68;37.03
10940;BME280;5522;42.696;23.494;2022-12-13T09:52:23;53888.00;;;-139.68;37.23
10940;BME280;5522;42.696;23.494;2022-12-13T09:54:53;53948.31;;;-139.68;35.64
10940;BME280;5522;42.696;23.494;2022-12-13T09:57:24;53904.06;;;-139.68;35.71
10940;BME280;5522;42.696;23.494;2022-12-13T09:59:52;53920.16;;;-139.68;33.95
10940;BME280;5522;42.696;23.494;2022-12-13T10:02:23;53910.09;;;-139.68;32.27
10940;BME280;5522;42.696;23.494;2022-12-13T10:04:53;53912.13;;;-139.68;31.72
10940;BME280;5522;42.696;23.494;2022-12-13T10:07:23;53928.19;;;-139.68;31.95
10940;BME280;5522;42.696;23.494;2022-12-13T10:09:59;53914.13;;;-139.68;30.90
10940;BME280;5522;42.696;23.494;2022-12-13T10:12:27;53938.25;;;-139.68;30.17
10940;BME280;5522;42.696;23.494;2022-12-13T10:14:58;53873.91;;;-139.68;30.40
10940;BME280;5522;42.696;23.494;2022-12-13T10:17:30;53954.31;;;-139.68;30.77
10940;BME280;5522;42.696;23.494;2022-12-13T10:20:00;53936.22;;;-139.68;31.65
10940;BME280;5522;42.696;23.494;2022-12-13T10:22:27;53912.13;;;-139.68;30.74
10940;BME280;5522;42.696;23.494;2022-12-13T10:24:56;53912.13;;;-139.68;29.75
10940;BME280;5522;42.696;23.494;2022-12-13T10:27:27;53932.22;;;-139.68;29.52
10940;BME280;5522;42.696;23.494;2022-12-13T10:29:56;53968.41;;;-139.68;29.83
10940;BME280;5522;42.696;23.494;2022-12-13T10:32:24;53904.06;;;-139.68;28.78
10940;BME280;5522;42.696;23.494;2022-12-13T10:34:51;53928.19;;;-139.68;29.02
10940;BME280;5522;42.696;23.494;2022-12-13T10:37:26;53920.16;;;-139.68;30.49
10940;BME280;5522;42.696;23.494;2022-12-13T10:39:54;53924.16;;;-139.68;30.46
10940;BME280;5522;42.696;23.494;2022-12-13T10:42:22;53952.31;;;-139.68;30.59
10940;BME280;5522;42.696;23.494;2022-12-13T10:45:07;53920.16;;;-139.68;30.52
10940;BME280;5522;42.696;23.494;2022-12-13T10:47:35;53908.09;;;-139.68;30.20
10940;BME280;5522;42.696;23.494;2022-12-13T10:50:02;53900.06;;;-139.68;31.36
10940;BME280;5522;42.696;23.494;2022-12-13T10:52:32;53944.28;;;-139.68;30.37
10940;BME280;5522;42.696;23.494;2022-12-13T10:55:02;53930.22;;;-139.68;29.41
10940;BME280;5522;42.696;23.494;2022-12-13T10:57:30;53930.22;;;-139.68;29.39
10940;BME280;5522;42.696;23.494;2022-12-13T10:59:58;53912.13;;;-139.68;31.26
10940;BME280;5522;42.696;23.494;2022-12-13T11:02:31;53920.16;;;-139.68;31.31
10940;BME280;5522;42.696;23.494;2022-12-13T11:05:00;53908.09;;;-139.68;33.25
10940;BME280;5522;42.696;23.494;2022-12-13T11:07:43;53863.88;;;-139.68;33.65
10940;BME280;5522;42.696;23.494;2022-12-13T11:10:17;53879.94;;;-139.68;32.15
10940;BME280;5522;42.696;23.494;2022-12-13T11:12:48;53944.28;;;-139.68;31.82
10940;BME280;5522;42.696;23.494;2022-12-13T11:15:17;53908.09;;;-139.68;32.10
10940;BME280;5522;42.696;23.494;2022-12-13T11:17:48;53928.19;;;-139.68;31.89
10940;BME280;5522;42.696;23.494;2022-12-13T11:20:18;53940.25;;;-139.68;32.19
10940;BME280;5522;42.696;23.494;2022-12-13T11:22:49;53928.19;;;-139.68;31.56
10940;BME280;5522;42.696;23.494;2022-12-13T11:25:28;53920.16;;;-139.68;31.92
10940;BME280;5522;42.696;23.494;2022-12-13T11:28:05;53914.13;;;-139.68;31.84
10940;BME280;5522;42.696;23.494;2022-12-13T11:30:42;53908.09;;;-139.68;32.07
10940;BME280;5522;42.696;23.494;2022-12-13T11:33:19;53888.00;;;-139.68;31.33
10940;BME280;5522;42.696;23.494;2022-12-13T11:35:59;53908.09;;;-139.68;32.69
10940;BME280;5522;42.696;23.494;2022-12-13T11:38:47;53952.31;;;-139.68;33.91
10940;BME280;5522;42.696;23.494;2022-12-13T11:41:22;53859.84;;;-139.68;36.78
10940;BME280;5522;42.696;23.494;2022-12-13T11:43:55;53867.88;;;-139.68;38.60
10940;BME280;5522;42.696;23.494;2022-12-13T11:46:34;53900.06;;;-139.68;37.80
10940;BME280;5522;42.696;23.494;2022-12-13T11:49:09;53875.94;;;-139.68;41.37
10940;BME280;5522;42.696;23.494;2022-12-13T11:51:40;53900.06;;;-139.68;45.61
10940;BME280;5522;42.696;23.494;2022-12-13T11:54:15;53875.94;;;-139.68;49.55
10940;BME280;5522;42.696;23.494;2022-12-13T11:56:43;53865.88;;;-139.68;57.26
10940;BME280;5522;42.696;23.494;2022-12-13T11:59:29;53849.78;;;-139.68;64.26
10940;BME280;5522;42.696;23.494;2022-12-13T12:02:02;53851.81;;;-139.68;66.95
10940;BME280;5522;42.696;23.494;2022-12-13T12:04:35;53803.56;;;-139.68;71.92
10940;BME280;5522;42.696;23.494;2022-12-13T12:07:10;53839.75;;;-139.68;73.22
10940;BME280;5522;42.696;23.494;2022-12-13T12:09:42;53875.94;;;-139.68;75.57
10940;BME280;5522;42.696;23.494;2022-12-13T12:12:18;53839.75;;;-139.68;81.99
10940;BME280;5522;42.696;23.494;2022-12-13T12:14:50;53839.75;;;-139.68;84.59
10940;BME280;5522;42.696;23.494;2022-12-13T12:17:22;53835.72;;;-139.68;88.47
10940;BME280;5522;42.696;23.494;2022-12-13T12:19:52;53871.91;;;-139.68;89.95
10940;BME280;5522;42.696;23.494;2022-12-13T12:22:27;53791.50;;;-139.68;89.82
10940;BME280;5522;42.696;23.494;2022-12-13T12:25:23;53835.72;;;-139.68;89.22
10940;BME280;5522;42.696;23.494;2022-12-13T12:28:02;53819.63;;;-139.68;89.11
10940;BME280;5522;42.696;23.494;2022-12-13T12:30:37;53835.72;;;-139.68;89.20
10940;BME280;5522;42.696;23.494;2022-12-13T12:33:14;53851.81;;;-139.68;88.36
10940;BME280;5522;42.696;23.494;2022-12-13T12:38:57;53813.59;;;-139.68;89.03
10940;BME280;5522;42.696;23.494;2022-12-13T12:41:36;53863.88;;;-139.68;87.41
10940;BME280;5522;42.696;23.494;2022-12-13T12:44:16;53807.56;;;-139.68;88.49
10940;BME280;5522;42.696;23.494;2022-12-13T12:46:57;53823.66;;;-139.68;88.56
10940;BME280;5522;42.696;23.494;2022-12-13T12:52:39;53829.69;;;-139.68;93.31
10940;BME280;5522;42.696;23.494;2022-12-13T12:55:17;53811.59;;;-139.68;95.18
10940;BME280;5522;42.696;23.494;2022-12-13T12:57:53;53847.78;;;-139.68;95.74
10940;BME280;5522;42.696;23.494;2022-12-13T13:00:22;53859.84;;;-139.68;98.00
10940;BME280;5522;42.696;23.494;2022-12-13T13:02:55;53815.63;;;-139.68;100.00